createdAt,value
2019-05-29T00:04:02.466Z,43.5
2019-05-29T00:09:02.641Z,43.4
2019-05-29T00:14:17.706Z,43.4
2019-05-29T00:19:18.988Z,43.3
2019-05-29T00:24:19.192Z,43.3
2019-05-29T00:29:19.334Z,43.2
2019-05-29T00:34:19.489Z,43.2
2019-05-29T00:39:19.644Z,43.1
2019-05-29T00:44:33.407Z,43.1
2019-05-29T00:49:34.151Z,43
2019-05-29T00:54:34.310Z,42.9
2019-05-29T00:59:34.474Z,42.9
2019-05-29T01:04:36.292Z,42.9
2019-05-29T01:09:36.448Z,42.8
2019-05-29T01:14:49.131Z,42.7
2019-05-29T01:19:49.907Z,42.7
2019-05-29T01:24:51.746Z,42.6
2019-05-29T01:29:53.599Z,42.6
2019-05-29T01:34:53.782Z,42.5
2019-05-29T01:39:55.582Z,42.5
2019-05-29T01:45:06.921Z,42.4
2019-05-29T01:50:09.183Z,42.4
2019-05-29T01:55:11.016Z,42.3
2019-05-29T02:00:12.834Z,42.2
2019-05-29T02:05:15.693Z,42.2
2019-05-29T02:10:18.201Z,42.2
2019-05-29T02:15:25.788Z,42.1
2019-05-29T02:20:31.785Z,42.1
2019-05-29T02:25:33.591Z,42
2019-05-29T02:30:35.401Z,42
2019-05-29T02:35:37.179Z,41.9
2019-05-29T02:40:38.926Z,41.9
2019-05-29T02:45:53.407Z,41.8
2019-05-29T02:50:56.023Z,41.7
2019-05-29T02:55:57.799Z,41.7
2019-05-29T03:00:59.567Z,41.7
2019-05-29T03:06:01.326Z,41.6
2019-05-29T03:11:03.076Z,41.6
2019-05-29T03:16:11.017Z,41.6
2019-05-29T03:21:14.070Z,41.5
2019-05-29T03:26:16.047Z,41.4
2019-05-29T03:31:17.803Z,41.4
2019-05-29T03:36:19.566Z,41.4
2019-05-29T03:41:21.315Z,41.3
2019-05-29T03:46:30.987Z,41.2
2019-05-29T03:51:37.086Z,41.2
2019-05-29T03:56:40.497Z,41.2
2019-05-29T04:01:42.246Z,41.1
2019-05-29T04:06:47.204Z,41.1
2019-05-29T04:11:49.086Z,41.1
2019-05-29T04:16:58.856Z,41
2019-05-29T04:22:01.168Z,40.9
2019-05-29T04:27:02.961Z,40.9
2019-05-29T04:32:04.765Z,40.9
2019-05-29T04:37:07.379Z,40.8
2019-05-29T04:42:08.370Z,40.8
2019-05-29T04:47:12.078Z,40.8
2019-05-29T04:52:14.299Z,40.6
2019-05-29T04:57:16.074Z,40.6
2019-05-29T05:02:16.884Z,40.5
2019-05-29T05:07:18.662Z,40.4
2019-05-29T05:12:20.650Z,40.4
2019-05-29T05:17:26.012Z,40.4
2019-05-29T05:22:28.313Z,40.3
2019-05-29T05:27:30.147Z,40.3
2019-05-29T05:32:32.605Z,40.2
2019-05-29T05:37:34.694Z,40.2
2019-05-29T05:42:37.096Z,40.2
2019-05-29T05:47:53.399Z,40.1
2019-05-29T05:52:58.197Z,40.1
2019-05-29T05:57:59.944Z,40.1
2019-05-29T06:03:01.715Z,40
2019-05-29T06:08:03.474Z,40
2019-05-29T06:13:05.208Z,39.9
2019-05-29T06:18:20.261Z,39.9
2019-05-29T06:23:22.887Z,39.9
2019-05-29T06:28:24.623Z,39.8
2019-05-29T06:33:26.364Z,39.8
2019-05-29T06:38:28.132Z,39.7
2019-05-29T06:43:29.855Z,39.7
2019-05-29T06:48:44.484Z,39.5
2019-05-29T06:53:54.116Z,39.4
2019-05-29T06:58:55.827Z,39.4
2019-05-29T07:04:10.939Z,39.3
2019-05-29T07:09:12.706Z,39.3
2019-05-29T07:14:14.423Z,39.2
2019-05-29T07:19:25.487Z,39.2
2019-05-29T07:24:28.619Z,39.2
2019-05-29T07:29:30.341Z,39.2
2019-05-29T07:34:47.372Z,39.1
2019-05-29T07:39:51.334Z,39.1
2019-05-29T07:44:53.046Z,39.1
2019-05-29T07:49:54.751Z,39
2019-05-29T07:54:56.484Z,39
2019-05-29T07:59:58.196Z,38.9
2019-05-29T08:04:59.911Z,38.9
2019-05-29T08:10:01.643Z,38.9
2019-05-29T08:15:03.383Z,38.9
2019-05-29T08:20:07.246Z,38.8
2019-05-29T08:25:09.404Z,38.8
2019-05-29T08:30:11.107Z,38.7
2019-05-29T08:35:12.830Z,38.7
2019-05-29T08:40:14.527Z,38.7
2019-05-29T08:45:16.241Z,38.7
2019-05-29T08:50:19.221Z,38.6
2019-05-29T08:55:20.879Z,38.6
2019-05-29T09:00:21.646Z,38.6
2019-05-29T09:05:23.404Z,38.6
2019-05-29T09:10:25.113Z,38.5
2019-05-29T09:15:26.802Z,38.5
2019-05-29T09:20:50.035Z,38.4
2019-05-29T09:26:13.923Z,38.4
2019-05-29T09:31:17.208Z,38.4
2019-05-29T09:36:20.664Z,38.4
2019-05-29T09:41:23.563Z,38.3
2019-05-29T09:46:25.864Z,38.3
2019-05-29T09:51:27.892Z,38.2
2019-05-29T09:56:29.578Z,38.2
2019-05-29T10:01:31.281Z,38.2
2019-05-29T10:06:32.980Z,38.2
2019-05-29T10:11:34.659Z,38.1
2019-05-29T10:16:36.338Z,38.1
2019-05-29T10:21:40.412Z,38.1
2019-05-29T10:26:42.737Z,38.1
2019-05-29T10:31:45.637Z,38
2019-05-29T10:36:51.667Z,38
2019-05-29T10:41:54.414Z,37.9
2019-05-29T10:46:56.616Z,37.9
2019-05-29T10:52:13.583Z,37.9
2019-05-29T10:57:16.217Z,37.9
2019-05-29T11:02:17.859Z,37.9
2019-05-29T11:07:19.501Z,37.8
2019-05-29T11:12:21.136Z,37.8
2019-05-29T11:17:22.776Z,37.7
2019-05-29T11:22:26.437Z,37.7
2019-05-29T11:27:28.329Z,37.7
2019-05-29T11:32:29.956Z,37.7
2019-05-29T11:37:31.576Z,37.7
2019-05-29T11:42:33.237Z,37.6
2019-05-29T11:47:34.879Z,37.6
2019-05-29T11:52:42.686Z,37.6
2019-05-29T11:57:44.877Z,37.6
2019-05-29T12:02:46.513Z,37.5
2019-05-29T12:07:48.148Z,37.5
2019-05-29T12:12:49.823Z,37.5
2019-05-29T12:17:57.771Z,37.4
2019-05-29T12:23:24.696Z,37.4
2019-05-29T12:28:27.239Z,37.4
2019-05-29T12:33:27.907Z,37.4
2019-05-29T12:38:29.553Z,37.3
2019-05-29T12:43:31.180Z,37.3
2019-05-29T12:48:32.801Z,37.2
2019-05-29T12:53:34.413Z,37.2
2019-05-29T12:58:36.037Z,37.2
2019-05-29T13:03:37.673Z,37.2
2019-05-29T13:08:39.288Z,37.2
2019-05-29T13:13:40.916Z,37.1
2019-05-29T13:18:42.525Z,37.1
2019-05-29T13:23:45.315Z,37.1
2019-05-29T13:28:47.321Z,37.1
2019-05-29T13:33:48.940Z,37.1
2019-05-29T13:38:50.574Z,37
2019-05-29T13:43:52.413Z,37
2019-05-29T13:48:54.030Z,37
2019-05-29T13:54:03.447Z,36.9
2019-05-29T13:59:06.726Z,36.9
2019-05-29T14:04:08.811Z,36.9
2019-05-29T14:09:10.455Z,36.9
2019-05-29T14:14:13.598Z,36.9
2019-05-29T14:19:15.451Z,36.8
2019-05-29T14:24:28.013Z,36.8
2019-05-29T14:29:30.904Z,36.8
2019-05-29T14:34:32.564Z,36.7
2019-05-29T14:39:34.204Z,36.7
2019-05-29T14:44:35.839Z,36.7
2019-05-29T14:49:37.500Z,36.7
2019-05-29T14:54:42.042Z,36.7
2019-05-29T14:59:44.183Z,36.6
2019-05-29T15:04:45.872Z,36.6
2019-05-29T15:09:47.537Z,36.6
2019-05-29T15:14:49.192Z,36.6
2019-05-29T15:19:50.833Z,36.6
2019-05-29T15:25:01.703Z,36.5
2019-05-29T15:30:06.314Z,36.5
2019-05-29T15:35:12.607Z,36.5
2019-05-29T15:40:17.105Z,36.5
2019-05-29T15:45:19.004Z,36.9
2019-05-29T15:50:20.691Z,39
2019-05-29T15:55:31.664Z,40.1
2019-05-29T16:00:35.448Z,41.1
2019-05-29T16:05:37.200Z,41.8
2019-05-29T16:10:39.234Z,42.6
2019-05-29T16:15:39.405Z,43.2
2019-05-29T16:20:39.807Z,43.7
2019-05-29T16:25:40.795Z,44.2
2019-05-29T16:30:41.202Z,44.5
2019-05-29T16:35:41.409Z,44.8
2019-05-29T16:40:41.732Z,45.2
2019-05-29T16:45:41.981Z,45.5
2019-05-29T16:50:42.945Z,45.8
2019-05-29T16:55:53.242Z,46
2019-05-29T17:00:53.780Z,46.1
2019-05-29T17:05:54.050Z,45.9
2019-05-29T17:10:54.324Z,46.2
2019-05-29T17:15:54.616Z,46.4
2019-05-29T17:26:09.956Z,46.9
2019-05-29T17:31:11.066Z,47.1
2019-05-29T17:36:11.390Z,47.3
2019-05-29T17:41:11.794Z,47.5
2019-05-29T17:46:12.085Z,47.7
2019-05-29T17:51:12.383Z,47.7
2019-05-29T17:56:25.210Z,47.9
2019-05-29T18:01:26.307Z,47.8
2019-05-29T18:06:28.218Z,48
2019-05-29T18:11:28.553Z,48
2019-05-29T18:16:28.865Z,47.9
2019-05-29T18:21:29.244Z,48.1
2019-05-29T18:26:45.777Z,48.1
2019-05-29T18:31:46.622Z,48.1
2019-05-29T18:36:46.919Z,48
2019-05-29T18:41:47.440Z,47.7
2019-05-29T18:46:47.711Z,48.1
2019-05-29T18:51:48.018Z,47.7
2019-05-29T18:57:11.157Z,47.9
2019-05-29T19:02:14.136Z,48.2
2019-05-29T19:07:17.514Z,48.2
2019-05-29T19:12:17.924Z,48.1
2019-05-29T19:17:18.946Z,48.1
2019-05-29T19:22:19.270Z,48.1
2019-05-29T19:27:30.709Z,48.1
2019-05-29T19:32:34.472Z,48
2019-05-29T19:37:35.729Z,48
2019-05-29T19:42:36.029Z,47.9
2019-05-29T19:47:36.325Z,47.9
2019-05-29T19:52:36.584Z,47.9
2019-05-29T19:57:52.346Z,47.8
2019-05-29T20:02:54.999Z,47.8
2019-05-29T20:07:55.348Z,47.7
2019-05-29T20:12:55.597Z,47.7
2019-05-29T20:17:55.839Z,47.7
2019-05-29T20:22:56.097Z,47.6
2019-05-29T20:28:05.709Z,47.6
2019-05-29T20:33:06.474Z,47.6
2019-05-29T20:38:06.858Z,47.5
2019-05-29T20:43:07.254Z,47.5
2019-05-29T20:53:13.377Z,47.4
2019-05-29T20:58:23.851Z,47.3
2019-05-29T21:03:24.778Z,47.3
2019-05-29T21:08:25.038Z,47.2
2019-05-29T21:13:25.304Z,47.2
2019-05-29T21:18:25.568Z,47.2
2019-05-29T21:23:25.813Z,47.1
2019-05-29T21:28:39.185Z,47.1
2019-05-29T21:33:43.732Z,47
2019-05-29T21:38:46.456Z,47
2019-05-29T21:43:47.082Z,46.9
2019-05-29T21:48:47.591Z,46.9
2019-05-29T21:53:47.966Z,46.9
2019-05-29T21:59:02.353Z,46.8
2019-05-29T22:04:03.730Z,46.7
2019-05-29T22:09:04.020Z,46.7
2019-05-29T22:14:04.309Z,46.7
2019-05-29T22:19:04.623Z,46.6
2019-05-29T22:24:04.956Z,46.6
2019-05-29T22:29:16.989Z,46.5
2019-05-29T22:34:18.160Z,46.4
2019-05-29T22:39:18.411Z,46.4
2019-05-29T22:44:18.664Z,46.4
2019-05-29T22:49:18.922Z,46.3
2019-05-29T22:54:19.215Z,46.2
2019-05-29T22:59:31.342Z,46.2
2019-05-29T23:04:32.155Z,46.2
2019-05-29T23:09:32.431Z,46.1
2019-05-29T23:14:32.899Z,46.1
2019-05-29T23:19:33.160Z,46
2019-05-29T23:24:33.419Z,46
2019-05-29T23:29:47.864Z,45.9
2019-05-29T23:34:48.639Z,45.9
2019-05-29T23:39:48.916Z,45.8
2019-05-29T23:44:51.797Z,45.8
2019-05-29T23:49:53.450Z,45.8
2019-05-29T23:54:54.139Z,45.7
